Time;durP1;ratioP1;P1;durP2;ratioP2;P2;SDS_P1;SDS_P2;PMS_P1;PMS_P2;Temp;Humidity;BMP_temperature;BMP_pressure;BME280_temperature;BME280_humidity;BME280_pressure;Samples;Min_cycle;Max_cycle;Signal;HPM_P1;HPM_P2
2021/11/15 00:00:56;;;;;;;80.55;45.90;;;;;;;6.98;81.49;101867.22;4969301;28;20035;-78
2021/11/15 00:03:23;;;;;;;79.90;45.92;;;;;;;6.98;81.65;101869.84;4968944;28;20050;-78
2021/11/15 00:05:48;;;;;;;84.45;47.13;;;;;;;7.00;81.10;101870.78;4968689;28;20498;-77
2021/11/15 00:08:14;;;;;;;84.40;44.13;;;;;;;7.00;81.36;101865.53;4968492;28;20034;-78
2021/11/15 00:10:40;;;;;;;76.70;44.63;;;;;;;7.03;81.34;101869.97;4968358;28;20035;-78
2021/11/15 00:13:06;;;;;;;75.50;41.83;;;;;;;7.09;81.11;101866.63;4967704;28;20039;-78
2021/11/15 00:15:33;;;;;;;73.65;42.72;;;;;;;6.94;81.35;101873.22;4969059;28;20043;-78
2021/11/15 00:17:58;;;;;;;81.40;43.28;;;;;;;6.87;81.43;101860.75;4967922;28;20039;-78
2021/11/15 00:20:24;;;;;;;80.07;43.72;;;;;;;6.87;81.70;101866.00;4970927;28;20035;-77
2021/11/15 00:22:49;;;;;;;78.22;42.25;;;;;;;6.83;81.87;101868.47;4967586;28;20069;-78
2021/11/15 00:25:15;;;;;;;79.30;42.08;;;;;;;6.83;81.46;101869.38;4968525;28;20035;-78
2021/11/15 00:27:41;;;;;;;74.20;39.63;;;;;;;6.78;82.25;101865.72;4967014;28;20039;-78
2021/11/15 00:30:09;;;;;;;72.70;39.85;;;;;;;6.69;82.12;101868.06;4969258;28;20062;-78
2021/11/15 00:32:34;;;;;;;71.32;38.35;;;;;;;6.70;82.11;101869.84;4968058;28;20102;-78
2021/11/15 00:35:00;;;;;;;84.80;42.70;;;;;;;6.72;82.28;101878.66;4968272;28;20046;-78
2021/11/15 00:37:25;;;;;;;83.50;43.92;;;;;;;6.70;82.51;101875.97;4967733;28;20391;-78
2021/11/15 00:39:50;;;;;;;76.63;41.45;;;;;;;6.75;81.89;101873.50;4967954;28;20173;-78
2021/11/15 00:42:16;;;;;;;75.93;40.40;;;;;;;6.67;81.91;101869.75;4967985;28;20043;-78
2021/11/15 00:44:42;;;;;;;82.25;41.67;;;;;;;6.74;82.05;101869.97;4967221;28;20094;-79
2021/11/15 00:47:08;;;;;;;84.72;41.53;;;;;;;6.79;81.83;101870.13;4968156;28;20532;-78
2021/11/15 00:49:35;;;;;;;84.03;42.15;;;;;;;6.83;81.73;101879.84;4967752;28;20105;-78
2021/11/15 00:52:00;;;;;;;84.63;41.58;;;;;;;6.88;81.31;101878.28;4967614;28;20098;-78
2021/11/15 00:54:26;;;;;;;83.65;42.30;;;;;;;6.87;81.80;101871.25;4965864;29;20042;-78
2021/11/15 00:56:51;;;;;;;78.85;40.58;;;;;;;6.87;81.05;101868.63;4967908;28;20513;-78
2021/11/15 00:59:17;;;;;;;88.53;44.20;;;;;;;6.86;81.18;101869.44;4968139;28;20035;-78
2021/11/15 01:01:42;;;;;;;81.13;40.50;;;;;;;6.82;81.59;101872.84;4967425;28;20106;-78
2021/11/15 01:04:08;;;;;;;83.57;41.15;;;;;;;6.86;81.56;101864.19;4974914;28;20042;-78
2021/11/15 01:06:33;;;;;;;75.63;40.45;;;;;;;6.87;81.47;101871.25;4966857;28;20045;-78
2021/11/15 01:08:59;;;;;;;78.85;40.47;;;;;;;6.86;81.27;101861.56;4967998;28;20059;-78
2021/11/15 01:11:25;;;;;;;81.03;40.05;;;;;;;6.87;81.48;101855.50;4972412;28;20053;-78
2021/11/15 01:13:51;;;;;;;84.35;42.95;;;;;;;6.91;80.89;101856.47;4970268;28;20039;-78
2021/11/15 01:16:17;;;;;;;77.65;41.22;;;;;;;6.92;80.58;101861.78;4967734;28;20066;-78
2021/11/15 01:18:43;;;;;;;76.85;39.42;;;;;;;6.97;80.70;101856.69;4967324;28;20043;-78
2021/11/15 01:21:11;;;;;;;78.45;40.78;;;;;;;6.99;80.83;101858.47;4966049;28;20049;-78
2021/11/15 01:23:37;;;;;;;83.85;41.28;;;;;;;7.05;80.66;101859.50;4964867;28;20043;-78
2021/11/15 01:26:04;;;;;;;81.78;40.90;;;;;;;7.09;80.32;101867.53;4965173;28;20047;-77
2021/11/15 01:28:29;;;;;;;78.63;40.35;;;;;;;7.08;80.49;101864.88;4965246;28;20031;-77
2021/11/15 01:30:55;;;;;;;74.93;39.83;;;;;;;7.06;80.43;101861.31;4965813;28;20143;-78
2021/11/15 01:33:20;;;;;;;82.07;41.75;;;;;;;6.99;80.39;101861.09;4965537;28;20078;-77
2021/11/15 01:35:46;;;;;;;80.88;41.10;;;;;;;6.98;80.25;101856.72;4964413;29;20035;-78
2021/11/15 01:38:11;;;;;;;80.18;39.47;;;;;;;7.01;80.92;101855.91;4963636;28;20201;-78
2021/11/15 01:40:36;;;;;;;78.93;39.60;;;;;;;7.07;80.48;101863.06;4962305;28;20138;-77
2021/11/15 01:43:03;;;;;;;77.45;40.63;;;;;;;7.06;80.52;101858.69;4962353;28;20129;-77
2021/11/15 01:45:30;;;;;;;79.05;41.13;;;;;;;7.07;80.34;101857.81;4962188;28;20524;-78
2021/11/15 01:47:59;;;;;;;81.32;41.42;;;;;;;7.07;80.48;101860.44;4962448;28;20039;-78
2021/11/15 01:50:26;;;;;;;71.07;37.35;;;;;;;7.08;80.69;101859.63;4963348;28;20035;-78
2021/11/15 01:52:53;;;;;;;78.15;40.72;;;;;;;7.06;80.53;101856.06;4963063;29;20043;-78
2021/11/15 01:55:19;;;;;;;78.88;40.70;;;;;;;7.06;80.53;101851.69;4967788;28;20147;-78
2021/11/15 01:57:47;;;;;;;77.50;39.63;;;;;;;7.05;80.08;101855.16;4969629;28;20494;-77
2021/11/15 02:00:19;;;;;;;76.57;38.88;;;;;;;7.02;80.66;101855.03;4969882;28;20047;-78
2021/11/15 02:02:45;;;;;;;79.05;39.50;;;;;;;7.00;80.28;101855.03;4969491;28;20466;-77
2021/11/15 02:05:10;;;;;;;79.85;42.50;;;;;;;6.95;80.74;101854.00;4969785;28;20050;-78
2021/11/15 02:07:36;;;;;;;81.43;39.95;;;;;;;6.90;80.75;101850.34;4969335;28;20078;-78
2021/11/15 02:10:05;;;;;;;76.65;41.13;;;;;;;6.91;80.70;101852.09;4969102;28;20071;-78
2021/11/15 02:12:30;;;;;;;82.45;40.25;;;;;;;6.94;80.68;101846.06;4969193;28;20043;-78
2021/11/15 02:14:55;;;;;;;76.00;40.08;;;;;;;6.98;80.68;101855.81;4971231;28;20039;-78
2021/11/15 02:17:21;;;;;;;73.68;38.38;;;;;;;6.99;80.39;101850.59;4968709;29;20046;-78
2021/11/15 02:19:47;;;;;;;73.70;38.65;;;;;;;7.01;80.00;101854.16;4968600;28;20047;-78
2021/11/15 02:22:12;;;;;;;68.43;37.40;;;;;;;7.03;80.01;101859.47;4969435;28;20043;-78
2021/11/15 02:24:38;;;;;;;74.93;40.80;;;;;;;6.99;79.97;101850.59;4969564;28;20043;-78
2021/11/15 02:27:04;;;;;;;72.15;38.72;;;;;;;6.99;80.46;101853.22;4969542;28;20047;-78
2021/11/15 02:29:30;;;;;;;72.93;39.58;;;;;;;6.98;80.71;101854.09;4969694;28;20042;-78
2021/11/15 02:31:55;;;;;;;73.63;39.35;;;;;;;6.96;79.95;101845.25;4967908;28;20039;-78
2021/11/15 02:34:21;;;;;;;65.57;35.92;;;;;;;6.94;80.46;101844.34;4968056;28;20396;-77
2021/11/15 02:36:46;;;;;;;73.75;38.75;;;;;;;6.95;80.74;101848.75;4967398;28;20069;-78
2021/11/15 02:39:11;;;;;;;74.65;39.03;;;;;;;6.98;80.16;101848.84;4971109;28;20039;-78
2021/11/15 02:41:37;;;;;;;68.82;37.95;;;;;;;6.97;79.96;101847.06;4967792;28;20047;-78
2021/11/15 02:44:05;;;;;;;70.20;37.53;;;;;;;6.97;79.85;101854.06;4967174;28;20047;-78
2021/11/15 02:46:31;;;;;;;65.78;36.47;;;;;;;6.93;79.81;101847.81;4968548;28;20039;-77
2021/11/15 02:48:57;;;;;;;66.72;36.72;;;;;;;6.94;79.97;101849.59;4967466;28;20158;-78
2021/11/15 02:51:24;;;;;;;65.10;36.22;;;;;;;6.95;79.24;101855.75;4967198;28;20054;-78
2021/11/15 02:53:50;;;;;;;60.88;36.03;;;;;;;6.97;79.68;101854.94;4965503;29;20433;-77
2021/11/15 02:56:16;;;;;;;61.42;34.83;;;;;;;6.98;79.13;101856.72;4967284;28;20047;-77
2021/11/15 02:58:42;;;;;;;62.72;35.22;;;;;;;6.91;79.25;101852.09;4967077;28;20038;-77
2021/11/15 03:01:11;;;;;;;62.08;35.25;;;;;;;6.93;79.41;101850.44;4966172;28;20503;-78
2021/11/15 03:03:37;;;;;;;64.38;36.30;;;;;;;6.92;79.31;101853.91;4965165;28;20042;-77
2021/11/15 03:06:03;;;;;;;60.97;35.33;;;;;;;6.93;79.10;101853.06;4967031;28;20098;-78
2021/11/15 03:08:29;;;;;;;61.35;34.90;;;;;;;6.89;79.16;101847.66;4967463;28;20063;-78
2021/11/15 03:11:00;;;;;;;63.97;36.13;;;;;;;6.88;79.11;101844.16;4967176;28;21817;-78
2021/11/15 03:13:28;;;;;;;60.53;33.55;;;;;;;6.88;78.72;101845.91;4967564;28;20070;-77
2021/11/15 03:15:55;;;;;;;57.88;32.95;;;;;;;6.87;79.13;101845.00;4966839;28;20043;-78
2021/11/15 03:18:27;;;;;;;65.38;36.00;;;;;;;6.87;78.69;101836.25;4969184;28;20055;-78
2021/11/15 03:20:56;;;;;;;56.85;32.88;;;;;;;6.86;78.81;101842.31;4968679;29;20066;-78
2021/11/15 03:23:25;;;;;;;58.90;34.22;;;;;;;6.88;78.81;101844.16;4969477;28;20039;-78
2021/11/15 03:25:50;;;;;;;58.30;32.92;;;;;;;6.91;78.62;101852.09;4969215;28;20062;-78
2021/11/15 03:28:19;;;;;;;57.60;33.70;;;;;;;6.93;78.46;101844.28;4968516;28;20422;-78
2021/11/15 03:30:49;;;;;;;61.22;33.42;;;;;;;6.93;78.42;101839.94;4968930;28;20035;-78
2021/11/15 03:33:14;;;;;;;62.00;33.65;;;;;;;6.93;78.97;101837.31;4968090;29;20031;-78
2021/11/15 03:35:40;;;;;;;60.63;34.17;;;;;;;6.91;78.63;101840.72;4970249;28;20054;-78
2021/11/15 03:38:06;;;;;;;57.97;33.65;;;;;;;6.90;79.04;101834.59;4968405;29;20083;-78
2021/11/15 03:40:32;;;;;;;59.95;33.83;;;;;;;6.92;78.81;101834.66;4966857;28;20098;-78
2021/11/15 03:43:00;;;;;;;60.70;33.55;;;;;;;6.86;78.72;101832.72;4966239;28;20066;-78
2021/11/15 03:45:27;;;;;;;58.00;34.05;;;;;;;6.80;78.83;101835.16;4967116;28;20039;-78
2021/11/15 03:47:54;;;;;;;58.15;33.10;;;;;;;6.83;78.78;101826.50;4968924;28;20063;-78
2021/11/15 03:50:20;;;;;;;62.42;33.35;;;;;;;6.83;79.34;101824.75;4967715;29;20062;-78
2021/11/15 03:52:46;;;;;;;56.85;32.25;;;;;;;6.87;78.53;101829.25;4968056;28;20039;-78
2021/11/15 03:55:14;;;;;;;56.58;32.80;;;;;;;6.85;78.94;101830.06;4968440;28;20043;-78
2021/11/15 03:57:40;;;;;;;53.72;31.38;;;;;;;6.85;78.72;101830.94;4961181;29;20102;-77
2021/11/15 04:00:10;;;;;;;52.75;30.95;;;;;;;6.89;77.80;101824.03;4967249;28;20044;-78
2021/11/15 04:02:42;;;;;;;55.53;30.20;;;;;;;6.87;78.27;101821.38;4970752;28;20502;-78
2021/11/15 04:05:10;;;;;;;56.38;33.08;;;;;;;6.82;78.22;101822.09;4967034;28;20047;-78
2021/11/15 04:07:43;;;;;;;54.03;31.50;;;;;;;6.85;78.64;101828.31;4967042;28;20099;-78
2021/11/15 04:10:18;;;;;;;60.65;32.80;;;;;;;6.82;78.29;101820.38;4968279;28;20038;-78
2021/11/15 04:12:45;;;;;;;55.10;31.20;;;;;;;6.86;78.14;101822.22;4968190;28;20066;-78
2021/11/15 04:15:13;;;;;;;49.95;30.10;;;;;;;6.84;78.43;101823.94;4968178;28;20039;-79
2021/11/15 04:17:39;;;;;;;52.85;30.83;;;;;;;6.88;77.76;101823.16;4972950;28;20030;-78
2021/11/15 04:20:07;;;;;;;52.10;29.80;;;;;;;6.92;77.60;101817.16;4973014;28;20031;-78
2021/11/15 04:22:35;;;;;;;49.65;27.75;;;;;;;6.91;77.73;101815.38;4976754;28;20043;-79
2021/11/15 04:25:00;;;;;;;49.35;29.23;;;;;;;6.92;77.32;101817.16;4968603;28;20038;-78
2021/11/15 04:27:26;;;;;;;46.40;27.83;;;;;;;6.96;77.50;101811.13;4971580;28;20031;-79
2021/11/15 04:29:51;;;;;;;48.72;28.92;;;;;;;7.00;77.36;101813.03;4967980;28;20035;-78
2021/11/15 04:32:16;;;;;;;47.95;28.27;;;;;;;7.08;76.90;101812.38;4965925;28;20035;-78
2021/11/15 04:34:42;;;;;;;51.33;30.00;;;;;;;7.08;77.63;101815.00;4967445;28;20053;-78
2021/11/15 04:37:07;;;;;;;49.63;28.55;;;;;;;7.07;77.31;101811.44;4967418;28;20138;-78
2021/11/15 04:39:32;;;;;;;46.17;28.15;;;;;;;7.12;76.94;101816.84;4967590;28;20035;-78
2021/11/15 04:41:58;;;;;;;52.55;29.20;;;;;;;7.14;77.10;101807.28;4967056;28;20130;-78
2021/11/15 04:44:23;;;;;;;50.53;28.90;;;;;;;7.18;77.30;101796.03;4965590;28;20039;-78
2021/11/15 04:46:48;;;;;;;55.08;30.08;;;;;;;7.17;76.71;101807.34;4965290;28;20089;-78
2021/11/15 04:49:14;;;;;;;52.00;30.23;;;;;;;7.10;77.52;101805.41;4963941;28;20394;-78
2021/11/15 04:51:40;;;;;;;49.75;28.10;;;;;;;7.08;77.41;101805.38;4964844;28;20043;-78
2021/11/15 04:54:05;;;;;;;49.38;28.58;;;;;;;7.09;77.17;101803.63;4965172;28;20039;-78
2021/11/15 04:56:31;;;;;;;54.78;29.98;;;;;;;7.02;78.16;101806.09;4963771;28;20089;-78
2021/11/15 04:58:57;;;;;;;56.90;31.50;;;;;;;7.08;78.10;101797.50;4966025;28;20553;-79
2021/11/15 05:01:22;;;;;;;65.15;35.30;;;;;;;7.11;77.45;101796.69;4966950;28;20513;-78
2021/11/15 05:03:47;;;;;;;55.90;31.73;;;;;;;7.13;78.19;101793.25;4966104;29;20031;-78
2021/11/15 05:06:13;;;;;;;59.03;33.00;;;;;;;7.11;77.60;101791.44;4967844;28;20059;-78
2021/11/15 05:08:38;;;;;;;56.25;31.02;;;;;;;7.08;77.80;101791.38;4967638;28;20043;-78
2021/11/15 05:11:04;;;;;;;54.88;32.03;;;;;;;7.06;77.86;101788.69;4960296;28;20035;-78
2021/11/15 05:13:29;;;;;;;62.20;33.25;;;;;;;7.07;77.78;101794.81;4962666;28;20061;-78
2021/11/15 05:15:55;;;;;;;60.67;33.00;;;;;;;7.03;77.79;101793.84;4964278;28;20042;-77
2021/11/15 05:18:21;;;;;;;59.10;32.22;;;;;;;7.07;77.75;101793.06;4964307;28;20043;-79
2021/11/15 05:20:46;;;;;;;65.55;33.65;;;;;;;7.08;77.77;101797.50;4962493;28;20042;-78
2021/11/15 05:23:12;;;;;;;59.13;31.85;;;;;;;7.08;77.66;101797.50;4968082;28;20098;-78
2021/11/15 05:25:37;;;;;;;56.55;31.92;;;;;;;7.06;77.73;101798.31;4969352;28;20031;-78
2021/11/15 05:28:03;;;;;;;61.97;30.55;;;;;;;7.09;77.61;101801.88;4966932;28;20094;-79
2021/11/15 05:30:28;;;;;;;57.15;31.25;;;;;;;7.08;77.40;101796.63;4972090;28;20037;-78
2021/11/15 05:32:55;;;;;;;57.33;30.98;;;;;;;7.08;77.78;101799.25;4971062;28;20059;-78
2021/11/15 05:35:23;;;;;;;55.15;31.23;;;;;;;7.02;77.94;101798.22;4966399;28;20077;-78
2021/11/15 05:37:49;;;;;;;54.78;29.88;;;;;;;7.07;77.38;101795.69;4969027;28;20039;-78
2021/11/15 05:40:15;;;;;;;53.25;29.77;;;;;;;7.06;77.48;101801.81;4962981;28;20097;-77
2021/11/15 05:42:41;;;;;;;52.47;28.77;;;;;;;7.02;77.50;101805.19;4959783;28;20039;-78
2021/11/15 05:45:08;;;;;;;53.75;29.85;;;;;;;7.05;77.34;101797.41;4960183;28;20063;-78
2021/11/15 05:47:33;;;;;;;54.63;29.30;;;;;;;7.01;77.63;101800.78;4958459;28;20502;-77
2021/11/15 05:49:58;;;;;;;52.80;30.30;;;;;;;7.00;77.76;101805.16;4957616;28;20104;-78
2021/11/15 05:52:24;;;;;;;56.35;28.65;;;;;;;6.96;77.52;101808.50;4958814;28;20478;-77
2021/11/15 05:54:51;;;;;;;52.42;29.52;;;;;;;7.00;78.00;101814.78;4964434;28;20041;-77
2021/11/15 05:57:17;;;;;;;54.38;31.45;;;;;;;6.99;77.21;101819.09;4962002;28;20094;-77
2021/11/15 05:59:43;;;;;;;52.70;30.40;;;;;;;6.99;77.21;101821.72;4962554;28;20053;-78
2021/11/15 06:02:09;;;;;;;53.30;30.80;;;;;;;7.00;77.74;101817.41;4962295;28;20063;-78
2021/11/15 06:04:34;;;;;;;69.97;36.75;;;;;;;7.02;77.54;101821.84;4979393;28;20066;-77
2021/11/15 06:06:59;;;;;;;56.05;31.25;;;;;;;7.06;77.07;101821.94;4967704;28;20062;-77
2021/11/15 06:09:25;;;;;;;53.50;31.02;;;;;;;7.05;77.74;101822.75;4964719;28;20035;-78
2021/11/15 06:11:50;;;;;;;50.95;27.77;;;;;;;7.05;77.04;101833.25;4961181;28;20047;-78
2021/11/15 06:14:15;;;;;;;53.55;31.38;;;;;;;7.09;77.25;101829.88;4966059;28;20082;-78
2021/11/15 06:16:41;;;;;;;55.08;32.90;;;;;;;7.16;77.38;101829.22;4962568;28;20047;-78
2021/11/15 06:19:06;;;;;;;53.80;31.27;;;;;;;7.18;77.23;101833.66;4960176;29;20035;-78
2021/11/15 06:21:31;;;;;;;50.40;30.95;;;;;;;7.22;77.16;101837.25;4961897;28;20039;-78
2021/11/15 06:23:57;;;;;;;44.15;27.10;;;;;;;7.24;76.71;101839.09;4961291;28;20046;-78
2021/11/15 06:26:22;;;;;;;51.60;30.50;;;;;;;7.26;76.53;101849.66;4961951;29;20051;-77
2021/11/15 06:28:49;;;;;;;55.75;30.92;;;;;;;7.20;76.34;101845.13;4961480;28;20044;-78
2021/11/15 06:31:16;;;;;;;52.45;30.52;;;;;;;7.18;76.85;101856.41;4961074;28;20046;-78
2021/11/15 06:33:41;;;;;;;54.35;31.67;;;;;;;7.15;76.67;101841.47;4961748;28;20045;-77
2021/11/15 06:36:07;;;;;;;49.83;29.98;;;;;;;7.19;76.46;101848.56;4962454;28;20114;-78
2021/11/15 06:38:32;;;;;;;54.15;29.77;;;;;;;7.17;76.73;101854.63;4965431;28;20047;-77
2021/11/15 06:40:58;;;;;;;49.90;29.75;;;;;;;7.16;76.49;101853.72;4965935;28;20043;-78
2021/11/15 06:43:23;;;;;;;50.40;29.45;;;;;;;7.19;77.01;101860.81;4965658;28;20047;-78
2021/11/15 06:45:50;;;;;;;48.08;29.27;;;;;;;7.23;76.44;101866.19;4964781;28;20058;-77
2021/11/15 06:48:16;;;;;;;50.15;30.40;;;;;;;7.22;76.53;101860.91;4965011;28;20043;-77
2021/11/15 06:50:41;;;;;;;54.13;29.95;;;;;;;7.22;76.69;101867.03;4964373;28;20066;-78
2021/11/15 06:53:07;;;;;;;51.28;28.88;;;;;;;7.23;76.40;101870.53;4964970;28;20043;-77
2021/11/15 06:55:32;;;;;;;51.90;30.70;;;;;;;7.20;76.51;101876.63;4964553;28;20039;-78
2021/11/15 06:57:58;;;;;;;56.83;32.50;;;;;;;7.22;76.66;101872.28;4964248;28;20090;-78
2021/11/15 07:00:25;;;;;;;60.97;32.53;;;;;;;7.29;76.48;101867.22;4959739;28;20039;-77
2021/11/15 07:02:53;;;;;;;57.38;31.90;;;;;;;7.29;76.49;101859.34;4964397;28;20045;-78
2021/11/15 07:05:21;;;;;;;55.95;33.17;;;;;;;7.31;77.02;101870.75;4965182;28;20122;-78
2021/11/15 07:07:47;;;;;;;65.50;34.97;;;;;;;7.33;76.35;101866.44;4961266;28;20041;-78
2021/11/15 07:10:13;;;;;;;63.25;35.28;;;;;;;7.36;75.94;101862.19;4958742;28;20094;-78
2021/11/15 07:12:40;;;;;;;66.22;35.53;;;;;;;7.40;76.56;101865.78;4959479;28;20713;-78
2021/11/15 07:15:07;;;;;;;57.38;33.08;;;;;;;7.41;76.31;101860.59;4971482;28;20042;-78
2021/11/15 07:17:32;;;;;;;63.97;36.70;;;;;;;7.43;76.13;101868.50;4957985;29;20039;-78
2021/11/15 07:19:58;;;;;;;59.42;34.88;;;;;;;7.41;76.48;101871.09;4964894;28;20049;-77
2021/11/15 07:22:23;;;;;;;65.97;37.35;;;;;;;7.42;75.96;101862.34;4964786;28;20035;-78
2021/11/15 07:24:49;;;;;;;61.92;34.53;;;;;;;7.46;76.08;101858.94;4963785;28;20102;-78
2021/11/15 07:27:15;;;;;;;65.32;35.85;;;;;;;7.50;76.28;101861.69;4964649;28;20043;-77
2021/11/15 07:29:40;;;;;;;58.83;33.45;;;;;;;7.51;76.20;101863.44;4964441;28;20039;-78
2021/11/15 07:32:13;;;;;;;58.38;33.85;;;;;;;7.55;75.57;101860.97;4964486;28;20041;-78
2021/11/15 07:34:40;;;;;;;56.30;33.53;;;;;;;7.55;75.69;101857.44;4963809;28;20091;-78
2021/11/15 07:37:07;;;;;;;62.95;35.25;;;;;;;7.52;75.91;101866.13;4963809;28;20151;-78
2021/11/15 07:39:37;;;;;;;61.17;35.03;;;;;;;7.53;75.87;101867.91;4963265;28;20047;-78
2021/11/15 07:42:04;;;;;;;56.85;32.75;;;;;;;7.55;75.76;101860.06;4963589;28;20058;-78
2021/11/15 07:44:29;;;;;;;67.50;34.65;;;;;;;7.57;76.14;101867.16;4962685;28;20145;-78
2021/11/15 07:46:54;;;;;;;59.33;33.38;;;;;;;7.57;75.69;101859.28;4963314;28;20039;-79
2021/11/15 07:49:19;;;;;;;52.58;31.15;;;;;;;7.54;75.72;101861.78;4962973;28;20062;-78
2021/11/15 07:51:45;;;;;;;61.13;34.35;;;;;;;7.57;76.22;101855.72;4962527;28;20035;-78
2021/11/15 07:54:10;;;;;;;61.33;34.67;;;;;;;7.61;75.40;101860.25;4961559;28;20039;-78
2021/11/15 07:56:35;;;;;;;55.22;33.15;;;;;;;7.60;75.94;101861.09;4962395;28;20057;-78
2021/11/15 07:59:01;;;;;;;60.22;32.75;;;;;;;7.62;75.56;101856.75;4963041;28;20055;-78
2021/11/15 08:01:26;;;;;;;59.17;33.45;;;;;;;7.68;75.38;101859.56;4963474;28;20039;-78
2021/11/15 08:03:51;;;;;;;63.72;37.05;;;;;;;7.65;75.45;101860.38;4962045;28;20039;-78
2021/11/15 08:06:17;;;;;;;56.03;33.20;;;;;;;7.55;75.73;101862.72;4962878;28;20062;-78
2021/11/15 08:08:43;;;;;;;57.00;32.40;;;;;;;7.61;75.56;101858.50;4962783;28;20490;-78
2021/11/15 08:11:10;;;;;;;53.33;31.90;;;;;;;7.61;75.41;101852.34;4962777;28;20094;-78
2021/11/15 08:13:35;;;;;;;56.10;31.73;;;;;;;7.61;75.17;101860.25;4962133;28;20063;-78
2021/11/15 08:16:01;;;;;;;52.60;29.48;;;;;;;7.63;74.69;101854.16;4962606;28;20153;-78
2021/11/15 08:18:26;;;;;;;57.72;32.08;;;;;;;7.66;74.99;101866.50;4961746;28;20039;-78
2021/11/15 08:20:52;;;;;;;56.05;33.35;;;;;;;7.67;74.85;101863.03;4963976;28;20039;-78
2021/11/15 08:23:19;;;;;;;57.38;31.10;;;;;;;7.65;74.70;101869.97;4962972;28;20032;-79
2021/11/15 08:25:56;;;;;;;57.67;32.83;;;;;;;7.66;74.87;101863.88;4962112;28;20046;-78
2021/11/15 08:28:25;;;;;;;52.47;29.15;;;;;;;7.71;74.31;101870.16;4960652;28;20482;-78
2021/11/15 08:30:50;;;;;;;57.55;32.38;;;;;;;7.71;74.69;101867.53;4960560;28;20063;-78
2021/11/15 08:33:15;;;;;;;53.33;31.27;;;;;;;7.67;74.67;101863.03;4960254;28;20054;-78
2021/11/15 08:35:41;;;;;;;54.20;31.35;;;;;;;7.70;74.61;101870.97;4961547;28;20035;-78
2021/11/15 08:38:16;;;;;;;53.53;30.23;;;;;;;7.71;74.26;101864.00;4959217;29;20047;-78
2021/11/15 08:40:47;;;;;;;54.30;31.48;;;;;;;7.71;74.26;101867.53;4959695;28;20070;-78
2021/11/15 08:43:18;;;;;;;58.42;33.35;;;;;;;7.67;74.25;101858.66;4959734;28;20134;-78
2021/11/15 08:45:43;;;;;;;60.90;32.03;;;;;;;7.63;74.16;101861.19;4960440;28;20042;-78
2021/11/15 08:48:09;;;;;;;56.05;32.40;;;;;;;7.70;74.71;101857.84;4959883;28;20036;-78
2021/11/15 08:50:34;;;;;;;60.80;32.80;;;;;;;7.74;74.43;101858.84;4960062;28;20130;-78
2021/11/15 08:53:00;;;;;;;57.15;32.92;;;;;;;7.77;74.21;101856.28;4959601;28;20062;-78
2021/11/15 08:55:26;;;;;;;57.75;32.78;;;;;;;7.74;74.05;101862.34;4960229;28;20441;-78
2021/11/15 08:57:52;;;;;;;52.95;30.50;;;;;;;7.71;74.20;101867.53;4959848;28;20043;-78
2021/11/15 09:00:18;;;;;;;59.42;32.72;;;;;;;7.74;74.36;101864.97;4959465;28;20047;-78
2021/11/15 09:02:44;;;;;;;57.97;31.23;;;;;;;7.69;74.63;101872.72;4957205;28;20692;-78
2021/11/15 09:05:09;;;;;;;58.63;31.73;;;;;;;7.61;74.47;101871.63;4965597;28;20704;-77
2021/11/15 09:07:37;;;;;;;55.22;31.92;;;;;;;7.66;74.31;101862.13;4958836;29;20498;-78
2021/11/15 09:10:07;;;;;;;59.60;33.28;;;;;;;7.73;74.01;101875.44;4959556;28;20051;-78
2021/11/15 09:12:34;;;;;;;59.42;31.30;;;;;;;7.70;74.15;101873.59;4959724;28;20035;-78
2021/11/15 09:15:00;;;;;;;54.78;30.33;;;;;;;7.59;74.02;101869.81;4962008;28;20433;-78
2021/11/15 09:17:25;;;;;;;50.75;29.73;;;;;;;7.56;73.61;101874.97;4959777;28;20045;-78
2021/11/15 09:19:52;;;;;;;59.58;31.60;;;;;;;7.60;74.11;101875.13;4959366;28;20058;-78
2021/11/15 09:22:17;;;;;;;53.13;30.52;;;;;;;7.57;73.09;101871.50;4959092;28;20031;-78
2021/11/15 09:24:45;;;;;;;53.92;31.25;;;;;;;7.55;73.61;101871.47;4958968;28;20038;-78
2021/11/15 09:27:14;;;;;;;52.45;28.95;;;;;;;7.55;73.40;101867.97;4957537;29;20074;-78
2021/11/15 09:29:44;;;;;;;55.53;30.05;;;;;;;7.57;72.87;101871.50;4958934;28;20035;-78
2021/11/15 09:32:09;;;;;;;50.78;29.55;;;;;;;7.58;72.59;101873.28;4955431;29;20046;-78
2021/11/15 09:34:40;;;;;;;47.17;29.10;;;;;;;7.55;72.52;101867.97;4959030;28;20027;-78
2021/11/15 09:37:14;;;;;;;53.50;30.08;;;;;;;7.53;72.57;101867.91;4962367;28;20130;-78
2021/11/15 09:39:41;;;;;;;52.42;30.65;;;;;;;7.57;73.10;101864.53;4959542;28;20086;-78
2021/11/15 09:42:08;;;;;;;56.83;31.77;;;;;;;7.64;73.05;101870.81;4959320;28;20086;-78
2021/11/15 09:44:33;;;;;;;58.78;31.00;;;;;;;7.66;72.60;101863.88;4958628;28;20043;-78
2021/11/15 09:47:00;;;;;;;58.92;32.05;;;;;;;7.62;72.67;101870.81;4957695;28;20031;-78
2021/11/15 09:49:25;;;;;;;57.55;31.23;;;;;;;7.60;72.68;101861.09;4960810;28;20102;-78
2021/11/15 09:51:51;;;;;;;59.95;33.08;;;;;;;7.64;73.18;101863.81;4964137;28;20490;-78
2021/11/15 09:54:17;;;;;;;55.78;30.52;;;;;;;7.64;73.02;101868.19;4965823;28;20043;-78
2021/11/15 09:56:44;;;;;;;56.08;31.88;;;;;;;7.63;73.08;101863.81;4962057;28;20062;-78
2021/11/15 09:59:13;;;;;;;56.08;31.67;;;;;;;7.60;72.55;101861.97;4963153;28;20043;-77
2021/11/15 10:01:41;;;;;;;53.40;28.20;;;;;;;7.55;72.02;101862.72;4958566;28;20039;-78
2021/11/15 10:04:08;;;;;;;56.38;29.35;;;;;;;7.47;71.85;101865.13;4961983;28;20039;-78
2021/11/15 10:06:34;;;;;;;53.35;29.30;;;;;;;7.53;72.19;101864.41;4959895;28;20050;-78
2021/11/15 10:09:01;;;;;;;53.17;30.70;;;;;;;7.61;72.22;101862.88;4959601;28;20042;-78
2021/11/15 10:11:39;;;;;;;59.63;32.28;;;;;;;7.64;71.58;101860.31;4959895;28;20057;-78
2021/11/15 10:14:04;;;;;;;57.35;31.73;;;;;;;7.60;72.47;101855.84;4962948;28;20042;-78
2021/11/15 10:16:32;;;;;;;61.08;31.73;;;;;;;7.71;72.23;101858.75;4963963;28;20027;-78
2021/11/15 10:18:58;;;;;;;61.17;31.75;;;;;;;7.83;71.95;101856.44;4962534;28;20106;-78
2021/11/15 10:21:28;;;;;;;50.47;29.77;;;;;;;7.77;70.90;101851.91;4963084;28;20102;-78
2021/11/15 10:23:59;;;;;;;58.72;31.02;;;;;;;7.88;71.25;101852.19;4970096;28;20071;-78
2021/11/15 10:26:35;;;;;;;57.65;31.90;;;;;;;8.00;71.21;101847.25;4964160;28;20035;-78
2021/11/15 10:29:16;;;;;;;56.70;31.75;;;;;;;8.10;71.04;101849.25;4959522;28;20066;-78
2021/11/15 10:31:51;;;;;;;59.95;32.25;;;;;;;8.15;70.72;101841.50;4960744;28;20039;-78
2021/11/15 10:34:25;;;;;;;54.25;30.77;;;;;;;8.13;70.60;101833.56;4960059;28;20680;-78
2021/11/15 10:37:01;;;;;;;58.42;31.70;;;;;;;8.16;70.15;101832.75;4963271;28;20035;-78
2021/11/15 10:39:39;;;;;;;57.78;32.33;;;;;;;8.20;69.86;101831.97;4964930;28;20039;-78
2021/11/15 10:42:07;;;;;;;64.13;34.47;;;;;;;8.31;70.67;101833.13;4962517;28;20027;-78
2021/11/15 10:44:34;;;;;;;60.35;32.92;;;;;;;8.40;69.81;101831.59;4962203;28;20031;-78
2021/11/15 10:47:00;;;;;;;56.67;32.97;;;;;;;8.44;69.91;101828.19;4960292;28;20039;-78
2021/11/15 10:49:25;;;;;;;54.78;33.45;;;;;;;8.53;70.19;101833.66;4964761;28;20062;-78
2021/11/15 10:51:56;;;;;;;58.33;32.60;;;;;;;8.62;69.41;101833.88;4963303;28;20035;-78
2021/11/15 10:57:19;;;;;;;59.53;33.22;;;;;;;8.72;69.05;101825.34;4962754;28;20043;-79
2021/11/15 10:59:44;;;;;;;54.00;32.47;;;;;;;8.83;68.85;101822.03;4981109;28;20493;-77
2021/11/15 11:02:28;;;;;;;46.92;28.20;;;;;;;8.83;67.43;101822.94;4958280;28;20031;-77
2021/11/15 11:05:14;;;;;;;50.95;30.13;;;;;;;8.85;67.33;101821.19;4960100;28;20031;-77
2021/11/15 11:07:43;;;;;;;52.90;30.55;;;;;;;8.97;68.40;101825.84;4955851;28;20043;-77
2021/11/15 11:10:10;;;;;;;61.67;31.98;;;;;;;9.06;67.66;101826.03;4958249;28;20042;-76
2021/11/15 11:12:45;;;;;;;53.05;31.25;;;;;;;9.03;67.72;101818.06;4953336;28;20065;-77
2021/11/15 11:15:38;;;;;;;50.28;29.50;;;;;;;9.04;66.50;101817.22;4954976;28;20035;-76
2021/11/15 11:18:36;;;;;;;56.08;30.92;;;;;;;8.97;66.16;101820.59;4955545;28;20110;-77